createdAt,value
2018-09-23T00:01:16.611Z,17.90
2018-09-23T00:03:48.451Z,17.90
2018-09-23T00:06:21.339Z,17.90
2018-09-23T00:08:53.750Z,17.90
2018-09-23T00:11:26.364Z,17.90
2018-09-23T00:13:58.371Z,17.80
2018-09-23T00:16:30.568Z,17.80
2018-09-23T00:19:02.665Z,17.80
2018-09-23T00:21:34.777Z,17.80
2018-09-23T00:24:06.714Z,17.80
2018-09-23T00:26:38.558Z,17.80
2018-09-23T00:29:10.676Z,17.80
2018-09-23T00:31:42.536Z,17.80
2018-09-23T00:34:14.658Z,17.70
2018-09-23T00:36:46.520Z,17.70
2018-09-23T00:39:18.474Z,17.70
2018-09-23T00:41:50.721Z,17.60
2018-09-23T00:44:22.539Z,17.60
2018-09-23T00:46:55.633Z,17.50
2018-09-23T00:49:27.807Z,17.40
2018-09-23T00:52:00.543Z,17.40
2018-09-23T00:54:32.497Z,17.30
2018-09-23T00:57:04.689Z,17.20
2018-09-23T00:59:37.952Z,17.20
2018-09-23T01:02:10.144Z,17.10
2018-09-23T01:04:42.127Z,17.10
2018-09-23T01:07:14.648Z,17.10
2018-09-23T01:09:46.560Z,17.10
2018-09-23T01:12:18.467Z,17.00
2018-09-23T01:14:51.947Z,16.90
2018-09-23T01:17:24.128Z,16.90
2018-09-23T01:19:56.519Z,16.90
2018-09-23T01:22:28.439Z,16.90
2018-09-23T01:25:01.502Z,16.90
2018-09-23T01:27:33.614Z,16.70
2018-09-23T01:30:05.796Z,16.70
2018-09-23T01:32:37.895Z,16.70
2018-09-23T01:35:09.914Z,16.70
2018-09-23T01:37:41.896Z,16.70
2018-09-23T01:40:14.035Z,16.60
2018-09-23T01:42:46.098Z,16.70
2018-09-23T01:45:18.120Z,16.70
2018-09-23T01:47:50.587Z,16.70
2018-09-23T01:50:22.540Z,16.70
2018-09-23T01:52:54.755Z,16.60
2018-09-23T01:55:27.041Z,16.60
2018-09-23T01:58:00.090Z,16.50
2018-09-23T02:00:32.112Z,16.50
2018-09-23T02:03:04.911Z,16.40
2018-09-23T02:05:36.720Z,16.40
2018-09-23T02:08:08.570Z,16.30
2018-09-23T02:10:40.552Z,16.30
2018-09-23T02:13:12.876Z,16.30
2018-09-23T02:15:44.653Z,16.20
2018-09-23T02:18:16.473Z,16.20
2018-09-23T02:20:48.631Z,16.20
2018-09-23T02:23:20.564Z,16.20
2018-09-23T02:25:52.496Z,16.10
2018-09-23T02:28:24.781Z,16.10
2018-09-23T02:30:56.897Z,16.00
2018-09-23T02:33:28.746Z,16.00
2018-09-23T02:36:00.760Z,15.90
2018-09-23T02:38:32.638Z,15.90
2018-09-23T02:41:05.431Z,15.90
2018-09-23T02:43:37.188Z,15.80
2018-09-23T02:46:09.781Z,15.80
2018-09-23T02:48:41.874Z,15.70
2018-09-23T02:51:14.777Z,15.60
2018-09-23T02:53:46.654Z,15.70
2018-09-23T02:56:18.754Z,15.70
2018-09-23T02:58:50.902Z,15.60
2018-09-23T03:01:23.183Z,15.60
2018-09-23T03:03:56.821Z,15.60
2018-09-23T03:06:28.914Z,15.50
2018-09-23T03:09:01.075Z,15.40
2018-09-23T03:11:33.067Z,15.50
2018-09-23T03:14:04.955Z,15.40
2018-09-23T03:16:37.119Z,15.40
2018-09-23T03:19:08.674Z,15.40
2018-09-23T03:21:40.686Z,15.40
2018-09-23T03:24:12.967Z,15.30
2018-09-23T03:26:45.197Z,15.30
2018-09-23T03:29:17.951Z,15.20
2018-09-23T03:31:50.050Z,15.20
2018-09-23T03:34:23.132Z,15.20
2018-09-23T03:36:55.106Z,15.10
2018-09-23T03:39:27.140Z,15.00
2018-09-23T03:41:58.819Z,14.90
2018-09-23T03:44:30.619Z,14.80
2018-09-23T03:47:02.615Z,14.80
2018-09-23T03:49:34.570Z,14.80
2018-09-23T03:52:06.785Z,14.80
2018-09-23T03:54:38.732Z,14.70
2018-09-23T03:57:10.695Z,14.70
2018-09-23T03:59:42.549Z,14.70
2018-09-23T04:02:14.967Z,14.60
2018-09-23T04:04:47.038Z,14.60
2018-09-23T04:07:19.017Z,14.60
2018-09-23T04:09:50.931Z,14.50
2018-09-23T04:12:23.132Z,14.40
2018-09-23T04:14:55.020Z,14.40
2018-09-23T04:17:26.939Z,14.30
2018-09-23T04:19:59.141Z,14.30
2018-09-23T04:22:34.830Z,14.30
2018-09-23T04:25:06.743Z,14.30
2018-09-23T04:27:38.996Z,14.30
2018-09-23T04:30:11.000Z,14.30
2018-09-23T04:32:42.812Z,14.20
2018-09-23T04:35:15.006Z,14.20
2018-09-23T04:37:47.741Z,14.20
2018-09-23T04:40:19.792Z,14.10
2018-09-23T04:42:51.652Z,14.10
2018-09-23T04:45:23.560Z,14.10
2018-09-23T04:47:56.490Z,14.10
2018-09-23T04:50:28.085Z,14.20
2018-09-23T04:52:59.767Z,14.30
2018-09-23T04:55:31.879Z,14.40
2018-09-23T04:58:04.313Z,14.40
2018-09-23T05:00:36.224Z,14.30
2018-09-23T05:03:08.325Z,14.40
2018-09-23T05:05:40.981Z,14.40
2018-09-23T05:08:12.605Z,14.50
2018-09-23T05:10:44.748Z,14.60
2018-09-23T05:13:17.333Z,14.70
2018-09-23T05:15:50.150Z,14.90
2018-09-23T05:18:22.378Z,14.90
2018-09-23T05:20:54.426Z,15.10
2018-09-23T05:23:27.255Z,15.20
2018-09-23T05:25:58.970Z,15.20
2018-09-23T05:28:31.831Z,15.40
2018-09-23T05:31:04.180Z,15.50
2018-09-23T05:33:36.182Z,15.60
2018-09-23T05:36:08.639Z,15.70
2018-09-23T05:38:40.596Z,15.80
2018-09-23T05:41:12.705Z,16.00
2018-09-23T05:43:44.406Z,16.30
2018-09-23T05:46:16.767Z,16.50
2018-09-23T05:48:49.167Z,16.70
2018-09-23T05:51:21.295Z,16.90
2018-09-23T05:53:53.585Z,17.00
2018-09-23T05:56:26.062Z,17.20
2018-09-23T05:58:58.816Z,17.40
2018-09-23T06:01:30.608Z,17.60
2018-09-23T06:04:02.540Z,17.80
2018-09-23T06:06:34.318Z,18.00
2018-09-23T06:09:06.991Z,18.10
2018-09-23T06:11:39.399Z,18.20
2018-09-23T06:14:11.519Z,18.50
2018-09-23T06:16:44.420Z,18.70
2018-09-23T06:19:18.780Z,19.00
2018-09-23T06:21:50.880Z,19.30
2018-09-23T06:24:23.197Z,19.60
2018-09-23T06:26:55.668Z,19.90
2018-09-23T06:29:28.087Z,20.20
2018-09-23T06:31:59.680Z,20.50
2018-09-23T06:34:31.465Z,20.70
2018-09-23T06:37:03.706Z,20.80
2018-09-23T06:39:35.965Z,20.90
2018-09-23T06:42:08.137Z,21.10
2018-09-23T06:44:40.303Z,21.20
2018-09-23T06:47:12.363Z,21.40
2018-09-23T06:49:45.046Z,21.50
2018-09-23T06:52:17.557Z,21.60
2018-09-23T06:54:51.029Z,21.80
2018-09-23T06:57:23.387Z,22.00
2018-09-23T06:59:55.828Z,22.10
2018-09-23T07:02:27.974Z,22.20
2018-09-23T07:04:59.973Z,22.30
2018-09-23T07:07:33.263Z,22.40
2018-09-23T07:10:05.931Z,22.50
2018-09-23T07:12:38.153Z,22.60
2018-09-23T07:15:10.480Z,22.60
2018-09-23T07:17:42.438Z,22.60
2018-09-23T07:20:14.829Z,22.80
2018-09-23T07:22:47.265Z,22.90
2018-09-23T07:25:19.712Z,23.10
2018-09-23T07:27:51.896Z,23.20
2018-09-23T07:30:24.037Z,23.40
2018-09-23T07:32:56.058Z,23.50
2018-09-23T07:35:28.281Z,23.60
2018-09-23T07:38:00.705Z,23.70
2018-09-23T07:40:33.797Z,23.80
2018-09-23T07:43:05.815Z,23.90
2018-09-23T07:45:37.940Z,24.10
2018-09-23T07:48:10.497Z,24.20
2018-09-23T07:50:43.958Z,24.30
2018-09-23T07:53:16.730Z,24.50
2018-09-23T07:55:48.942Z,24.50
2018-09-23T07:58:20.969Z,24.60
2018-09-23T08:00:52.851Z,24.70
2018-09-23T08:03:25.387Z,24.80
2018-09-23T08:05:57.779Z,24.80
2018-09-23T08:08:30.514Z,24.90
2018-09-23T08:11:02.742Z,25.00
2018-09-23T08:13:35.028Z,25.10
2018-09-23T08:16:07.359Z,25.10
2018-09-23T08:18:39.671Z,25.10
2018-09-23T08:21:11.804Z,25.20
2018-09-23T08:23:43.526Z,25.20
2018-09-23T08:26:16.504Z,25.30
2018-09-23T08:28:48.745Z,25.40
2018-09-23T08:31:20.764Z,25.60
2018-09-23T08:33:53.414Z,25.60
2018-09-23T08:36:26.104Z,25.60
2018-09-23T08:38:58.400Z,25.80
2018-09-23T08:41:30.527Z,25.90
2018-09-23T08:44:03.218Z,26.10
2018-09-23T08:46:35.551Z,26.30
2018-09-23T08:49:07.981Z,26.40
2018-09-23T08:51:40.570Z,26.50
2018-09-23T08:54:12.755Z,26.60
2018-09-23T08:56:45.229Z,26.60
2018-09-23T08:59:17.602Z,26.60
2018-09-23T09:01:49.845Z,26.70
2018-09-23T09:04:22.154Z,26.90
2018-09-23T09:06:53.984Z,26.90
2018-09-23T09:09:26.050Z,27.00
2018-09-23T09:11:58.292Z,27.20
2018-09-23T09:14:30.680Z,27.30
2018-09-23T09:17:02.768Z,27.30
2018-09-23T09:19:35.350Z,27.10
2018-09-23T09:22:07.592Z,26.90
2018-09-23T09:24:39.482Z,26.80
2018-09-23T09:27:11.791Z,26.70
2018-09-23T09:29:44.542Z,26.70
2018-09-23T09:32:17.673Z,26.70
2018-09-23T09:34:50.398Z,26.90
2018-09-23T09:37:24.714Z,27.00
2018-09-23T09:39:57.057Z,27.20
2018-09-23T09:42:29.097Z,27.40
2018-09-23T09:45:01.235Z,27.60
2018-09-23T09:47:33.795Z,27.70
2018-09-23T09:50:06.295Z,27.80
2018-09-23T09:52:38.606Z,28.00
2018-09-23T09:55:11.046Z,28.10
2018-09-23T09:57:42.815Z,28.20
2018-09-23T10:00:18.646Z,28.10
2018-09-23T10:02:50.604Z,28.30
2018-09-23T10:05:23.112Z,28.50
2018-09-23T10:07:57.328Z,28.70
2018-09-23T10:10:31.945Z,28.80
2018-09-23T10:13:04.008Z,28.80
2018-09-23T10:15:35.577Z,28.90
2018-09-23T10:18:07.902Z,28.90
2018-09-23T10:20:40.445Z,28.90
2018-09-23T10:23:12.813Z,29.00
2018-09-23T10:25:45.313Z,29.00
2018-09-23T10:28:17.488Z,29.10
2018-09-23T10:30:49.657Z,29.20
2018-09-23T10:33:21.343Z,29.20
2018-09-23T10:35:53.258Z,29.20
2018-09-23T10:38:25.187Z,29.20
2018-09-23T10:40:57.331Z,29.30
2018-09-23T10:43:29.435Z,29.40
2018-09-23T10:46:01.608Z,29.50
2018-09-23T10:48:34.438Z,29.60
2018-09-23T10:51:07.301Z,29.60
2018-09-23T10:53:39.056Z,29.70
2018-09-23T10:56:11.183Z,29.90
2018-09-23T10:58:43.423Z,30.00
2018-09-23T11:01:15.708Z,30.10
2018-09-23T11:03:47.868Z,30.20
2018-09-23T11:06:20.139Z,30.20
2018-09-23T11:08:52.559Z,30.20
2018-09-23T11:11:24.527Z,30.30
2018-09-23T11:13:56.540Z,30.40
2018-09-23T11:16:28.571Z,30.40
2018-09-23T11:19:01.077Z,30.40
2018-09-23T11:21:33.296Z,30.40
2018-09-23T11:24:05.896Z,30.20
2018-09-23T11:26:38.147Z,30.00
2018-09-23T11:29:10.064Z,29.80
2018-09-23T11:31:42.180Z,29.80
2018-09-23T11:34:14.212Z,29.80
2018-09-23T11:36:46.417Z,29.60
2018-09-23T11:39:18.580Z,29.50
2018-09-23T11:41:50.872Z,29.50
2018-09-23T11:44:22.901Z,29.70
2018-09-23T11:46:54.573Z,29.70
2018-09-23T11:49:27.285Z,29.80
2018-09-23T11:52:00.522Z,29.80
2018-09-23T11:54:34.901Z,29.70
2018-09-23T11:57:07.740Z,29.70
2018-09-23T11:59:41.670Z,29.70
2018-09-23T12:02:14.438Z,29.80
2018-09-23T12:04:46.452Z,29.90
2018-09-23T12:07:18.975Z,29.90
2018-09-23T12:09:52.745Z,29.80
2018-09-23T12:12:24.908Z,29.70
2018-09-23T12:14:57.526Z,29.70
2018-09-23T12:17:30.020Z,29.80
2018-09-23T12:20:02.249Z,29.90
2018-09-23T12:22:33.995Z,30.10
2018-09-23T12:25:06.255Z,30.10
2018-09-23T12:27:38.895Z,30.10
2018-09-23T12:30:11.204Z,30.10
2018-09-23T12:32:43.883Z,30.20
2018-09-23T12:35:16.567Z,30.10
2018-09-23T12:37:48.821Z,29.90
2018-09-23T12:40:20.923Z,29.80
2018-09-23T12:42:52.713Z,29.80
2018-09-23T12:45:25.698Z,29.90
2018-09-23T12:47:57.970Z,30.00
2018-09-23T12:50:31.011Z,30.10
2018-09-23T12:53:03.290Z,30.20
2018-09-23T12:55:35.989Z,30.30
2018-09-23T12:58:09.104Z,30.30
2018-09-23T13:00:41.630Z,30.40
2018-09-23T13:03:14.310Z,30.40
2018-09-23T13:05:46.665Z,30.50
2018-09-23T13:08:18.985Z,30.60
2018-09-23T13:10:51.370Z,30.60
2018-09-23T13:13:23.458Z,30.70
2018-09-23T13:15:55.665Z,30.60
2018-09-23T13:18:27.631Z,30.60
2018-09-23T13:20:59.674Z,30.60
2018-09-23T13:23:32.068Z,30.40
2018-09-23T13:26:04.506Z,30.30
2018-09-23T13:28:37.226Z,30.20
2018-09-23T13:31:09.199Z,30.20
2018-09-23T13:33:41.649Z,30.20
2018-09-23T13:36:14.099Z,30.30
2018-09-23T13:38:46.259Z,30.30
2018-09-23T13:41:18.475Z,30.10
2018-09-23T13:43:50.747Z,30.10
2018-09-23T13:46:22.965Z,30.20
2018-09-23T13:48:55.237Z,30.10
2018-09-23T13:51:27.945Z,30.10
2018-09-23T13:54:00.611Z,30.10
2018-09-23T13:56:32.344Z,30.00
2018-09-23T13:59:05.409Z,30.00
2018-09-23T14:01:37.555Z,30.00
2018-09-23T14:04:10.096Z,29.90
2018-09-23T14:06:42.660Z,29.90
2018-09-23T14:09:14.946Z,29.80
2018-09-23T14:11:47.336Z,29.70
2018-09-23T14:14:20.023Z,29.70
2018-09-23T14:16:52.549Z,29.70
2018-09-23T14:19:24.708Z,29.60
2018-09-23T14:21:57.204Z,29.60
2018-09-23T14:24:30.094Z,29.50
2018-09-23T14:27:02.388Z,29.40
2018-09-23T14:29:34.546Z,29.40
2018-09-23T14:32:06.585Z,29.40
2018-09-23T14:34:39.663Z,29.40
2018-09-23T14:37:12.098Z,29.40
2018-09-23T14:39:44.166Z,29.30
2018-09-23T14:42:16.574Z,29.10
2018-09-23T14:44:48.932Z,29.00
2018-09-23T14:47:21.939Z,28.90
2018-09-23T14:49:53.701Z,28.80
2018-09-23T14:52:26.408Z,28.70
2018-09-23T14:54:58.441Z,28.50
2018-09-23T14:57:30.891Z,28.50
2018-09-23T15:00:03.421Z,28.50
2018-09-23T15:02:35.827Z,28.50
2018-09-23T15:05:07.783Z,28.40
2018-09-23T15:07:40.129Z,28.30
2018-09-23T15:10:12.526Z,28.30
2018-09-23T15:12:46.091Z,28.20
2018-09-23T15:15:18.618Z,28.20
2018-09-23T15:17:51.151Z,28.10
2018-09-23T15:20:23.824Z,28.00
2018-09-23T15:22:56.309Z,27.90
2018-09-23T15:25:28.352Z,27.70
2018-09-23T15:28:01.105Z,27.50
2018-09-23T15:30:34.069Z,27.40
2018-09-23T15:33:07.900Z,27.20
2018-09-23T15:35:40.193Z,27.10
2018-09-23T15:38:12.359Z,27.00
2018-09-23T15:40:44.327Z,26.90
2018-09-23T15:43:16.722Z,26.70
2018-09-23T15:45:48.822Z,26.60
2018-09-23T15:48:20.917Z,26.50
2018-09-23T15:50:53.504Z,26.40
2018-09-23T15:53:26.113Z,26.30
2018-09-23T15:55:58.306Z,26.10
2018-09-23T15:58:30.362Z,26.00
2018-09-23T16:01:03.056Z,25.80
2018-09-23T16:03:35.915Z,25.70
2018-09-23T16:06:08.250Z,25.60
2018-09-23T16:08:40.541Z,25.40
2018-09-23T16:11:12.649Z,25.30
2018-09-23T16:13:45.393Z,25.20
2018-09-23T16:16:17.159Z,25.00
2018-09-23T16:18:49.666Z,24.90
2018-09-23T16:21:21.863Z,24.80
2018-09-23T16:23:54.576Z,24.70
2018-09-23T16:26:26.925Z,24.60
2018-09-23T16:28:59.227Z,24.50
2018-09-23T16:31:31.332Z,24.40
2018-09-23T16:34:03.626Z,24.30
2018-09-23T16:36:36.715Z,24.20
2018-09-23T16:39:11.311Z,24.10
2018-09-23T16:41:43.771Z,24.00
2018-09-23T16:44:16.268Z,23.90
2018-09-23T16:46:49.283Z,23.80
2018-09-23T16:49:21.373Z,23.70
2018-09-23T16:51:53.069Z,23.60
2018-09-23T16:54:24.811Z,23.40
2018-09-23T16:56:57.194Z,23.30
2018-09-23T16:59:29.599Z,23.10
2018-09-23T17:02:02.163Z,22.90
2018-09-23T17:04:35.700Z,22.70
2018-09-23T17:07:10.520Z,22.60
2018-09-23T17:09:43.708Z,22.50
2018-09-23T17:12:15.337Z,22.30
2018-09-23T17:14:47.794Z,22.20
2018-09-23T17:17:20.007Z,22.00
2018-09-23T17:19:52.226Z,22.00
2018-09-23T17:22:24.592Z,21.80
2018-09-23T17:24:56.881Z,21.80
2018-09-23T17:27:29.482Z,21.70
2018-09-23T17:30:03.569Z,21.60
2018-09-23T17:32:35.806Z,21.60
2018-09-23T17:35:08.680Z,21.50
2018-09-23T17:37:42.231Z,21.40
2018-09-23T17:40:14.705Z,21.40
2018-09-23T17:42:47.870Z,21.40
2018-09-23T17:45:19.728Z,21.30
2018-09-23T17:47:51.644Z,21.20
2018-09-23T17:50:24.368Z,21.10
2018-09-23T17:52:57.086Z,21.10
2018-09-23T17:55:29.633Z,21.00
2018-09-23T17:58:02.389Z,20.90
2018-09-23T18:00:34.903Z,20.80
2018-09-23T18:03:07.319Z,20.60
2018-09-23T18:05:39.365Z,20.40
2018-09-23T18:08:11.842Z,20.30
2018-09-23T18:10:44.468Z,20.30
2018-09-23T18:13:17.654Z,20.30
2018-09-23T18:15:50.325Z,20.20
2018-09-23T18:18:23.440Z,20.10
2018-09-23T18:20:55.710Z,20.10
2018-09-23T18:23:28.743Z,20.10
2018-09-23T18:26:01.617Z,20.00
2018-09-23T18:28:35.700Z,20.00
2018-09-23T18:31:08.932Z,19.90
2018-09-23T18:33:41.920Z,19.90
2018-09-23T18:36:14.327Z,19.80
2018-09-23T18:38:46.742Z,19.70
2018-09-23T18:41:19.461Z,19.60
2018-09-23T18:43:51.849Z,19.50
2018-09-23T18:46:24.055Z,19.40
2018-09-23T18:48:56.224Z,19.30
2018-09-23T18:51:28.458Z,19.20
2018-09-23T18:54:05.934Z,19.10
2018-09-23T18:56:38.374Z,18.80
2018-09-23T18:59:11.924Z,18.70
2018-09-23T19:01:44.668Z,18.70
2018-09-23T19:04:16.919Z,18.60
2018-09-23T19:06:49.276Z,18.50
2018-09-23T19:09:21.547Z,18.50
2018-09-23T19:11:53.356Z,18.50
2018-09-23T19:14:25.214Z,18.50
2018-09-23T19:16:57.591Z,18.50
2018-09-23T19:19:36.037Z,18.50
2018-09-23T19:22:13.373Z,18.40
2018-09-23T19:24:46.377Z,18.40
2018-09-23T19:27:19.111Z,18.30
2018-09-23T19:29:51.722Z,18.30
2018-09-23T19:32:23.608Z,18.20
2018-09-23T19:34:56.232Z,18.10
2018-09-23T19:37:28.793Z,18.00
2018-09-23T19:40:01.322Z,18.00
2018-09-23T19:42:33.963Z,18.00
2018-09-23T19:45:07.488Z,18.00
2018-09-23T19:47:39.873Z,17.90
2018-09-23T19:50:11.829Z,17.80
2018-09-23T19:52:43.669Z,17.70
2018-09-23T19:55:16.435Z,17.60
2018-09-23T19:57:49.273Z,17.60
2018-09-23T20:00:21.644Z,17.60
2018-09-23T20:02:53.960Z,17.60
2018-09-23T20:05:26.941Z,17.60
2018-09-23T20:07:59.741Z,17.50
2018-09-23T20:10:32.293Z,17.50
2018-09-23T20:13:05.082Z,17.40
2018-09-23T20:15:37.587Z,17.30
2018-09-23T20:18:10.105Z,17.30
2018-09-23T20:20:42.391Z,17.30
2018-09-23T20:23:14.686Z,17.30
2018-09-23T20:25:47.100Z,17.20
2018-09-23T20:28:19.432Z,17.10
2018-09-23T20:30:51.729Z,17.10
2018-09-23T20:33:24.201Z,17.10
2018-09-23T20:35:56.426Z,17.10
2018-09-23T20:38:28.546Z,17.00
2018-09-23T20:41:00.500Z,16.90
2018-09-23T20:43:33.438Z,16.90
2018-09-23T20:46:05.664Z,16.90
2018-09-23T20:48:37.770Z,16.90
2018-09-23T20:51:10.262Z,16.80
2018-09-23T20:53:43.014Z,16.80
2018-09-23T20:56:15.529Z,16.80
2018-09-23T20:58:47.332Z,16.70
2018-09-23T21:01:19.576Z,16.70
2018-09-23T21:03:51.841Z,16.70
2018-09-23T21:06:23.936Z,16.60
2018-09-23T21:08:56.025Z,16.60
2018-09-23T21:11:28.334Z,16.60
2018-09-23T21:14:00.905Z,16.60
2018-09-23T21:16:32.733Z,16.60
2018-09-23T21:19:05.120Z,16.70
2018-09-23T21:21:37.569Z,16.60
2018-09-23T21:24:09.649Z,16.50
2018-09-23T21:26:42.502Z,16.60
2018-09-23T21:29:15.074Z,16.50
2018-09-23T21:31:47.251Z,16.50
2018-09-23T21:34:19.080Z,16.50
2018-09-23T21:36:51.448Z,16.40
2018-09-23T21:39:23.262Z,16.40
2018-09-23T21:41:55.587Z,16.40
2018-09-23T21:44:27.633Z,16.30
2018-09-23T21:46:59.755Z,16.30
2018-09-23T21:49:32.488Z,16.30
2018-09-23T21:52:05.824Z,16.30
2018-09-23T21:54:38.204Z,16.30
2018-09-23T21:57:10.269Z,16.20
2018-09-23T21:59:42.476Z,16.20
2018-09-23T22:02:14.895Z,16.30
2018-09-23T22:04:46.943Z,16.30
2018-09-23T22:07:18.945Z,16.20
2018-09-23T22:09:52.074Z,16.20
2018-09-23T22:12:24.303Z,16.20
2018-09-23T22:14:57.275Z,16.10
2018-09-23T22:17:29.084Z,16.10
2018-09-23T22:20:01.289Z,16.10
2018-09-23T22:22:33.825Z,16.10
2018-09-23T22:25:05.791Z,16.10
2018-09-23T22:27:37.738Z,16.00
2018-09-23T22:30:10.366Z,16.00
2018-09-23T22:32:42.498Z,15.90
2018-09-23T22:35:14.482Z,15.90
2018-09-23T22:37:46.514Z,15.80
2018-09-23T22:40:18.504Z,15.70
2018-09-23T22:42:50.592Z,15.70
2018-09-23T22:45:22.792Z,15.60
2018-09-23T22:47:54.891Z,15.60
2018-09-23T22:50:27.314Z,15.60
2018-09-23T22:52:59.833Z,15.50
2018-09-23T22:55:31.816Z,15.50
2018-09-23T22:58:04.904Z,15.50
2018-09-23T23:00:37.330Z,15.50
2018-09-23T23:03:09.925Z,15.40
2018-09-23T23:05:42.080Z,15.50
2018-09-23T23:08:14.395Z,15.40
2018-09-23T23:10:46.431Z,15.40
2018-09-23T23:13:18.614Z,15.40
2018-09-23T23:15:50.813Z,15.40
2018-09-23T23:18:22.750Z,15.40
2018-09-23T23:20:54.750Z,15.40
2018-09-23T23:23:27.300Z,15.40
2018-09-23T23:25:59.720Z,15.40
2018-09-23T23:28:32.561Z,15.40
2018-09-23T23:31:05.170Z,15.40
2018-09-23T23:33:37.330Z,15.40
2018-09-23T23:36:09.515Z,15.30
2018-09-23T23:38:41.434Z,15.30
2018-09-23T23:41:13.479Z,15.30
2018-09-23T23:43:45.470Z,15.30
2018-09-23T23:46:17.499Z,15.20
2018-09-23T23:48:49.597Z,15.30
2018-09-23T23:51:21.620Z,15.20
2018-09-23T23:53:53.662Z,15.20
2018-09-23T23:56:25.399Z,15.10
2018-09-23T23:58:57.398Z,15.10
